Time;durP1;ratioP1;P1;durP2;ratioP2;P2;SDS_P1;SDS_P2;PMS_P1;PMS_P2;Temp;Humidity;BMP_temperature;BMP_pressure;BME280_temperature;BME280_humidity;BME280_pressure;Samples;Min_cycle;Max_cycle;Signal;HPM_P1;HPM_P2
2022/01/12 00:00:13;;;;;;;8.97;7.17;;;;;;;;;;5074510;28;20472;-60
2022/01/12 00:02:39;;;;;;;8.10;6.43;;;;;;;;;;5074653;28;20723;-60
2022/01/12 00:05:05;;;;;;;7.67;6.43;;;;;;;;;;5074486;28;20433;-60
2022/01/12 00:07:31;;;;;;;10.10;6.53;;;;;;;;;;5074498;28;20208;-60
2022/01/12 00:09:59;;;;;;;10.03;6.40;;;;;;;;;;5074494;28;20548;-60
2022/01/12 00:12:26;;;;;;;8.97;6.50;;;;;;;;;;5074200;28;20488;-61
2022/01/12 00:14:52;;;;;;;9.60;6.70;;;;;;;;;;5074369;28;20528;-60
2022/01/12 00:17:18;;;;;;;9.80;6.32;;;;;;;;;;5074409;28;20372;-61
2022/01/12 00:19:44;;;;;;;10.93;6.27;;;;;;;;;;5074233;28;20206;-60
2022/01/12 00:22:10;;;;;;;8.97;6.40;;;;;;;;;;5074331;28;20204;-60
2022/01/12 00:33:12;;;;;;;6.60;5.63;;;;;;;;;;5071450;28;20931;-61
2022/01/12 00:35:39;;;;;;;7.70;6.00;;;;;;;;;;5074363;28;20433;-61
2022/01/12 00:38:05;;;;;;;7.17;6.07;;;;;;;;;;5074161;28;20433;-61
2022/01/12 00:40:31;;;;;;;12.60;6.17;;;;;;;;;;5074407;28;21014;-62
2022/01/12 00:42:59;;;;;;;7.73;6.03;;;;;;;;;;5074465;28;20200;-61
2022/01/12 00:45:25;;;;;;;9.37;6.10;;;;;;;;;;5074277;28;20803;-61
2022/01/12 00:47:51;;;;;;;8.03;6.23;;;;;;;;;;5074278;28;20468;-62
2022/01/12 00:50:17;;;;;;;10.10;6.47;;;;;;;;;;5074426;28;20434;-62
2022/01/12 00:52:43;;;;;;;9.67;6.07;;;;;;;;;;5074135;28;20434;-60
2022/01/12 00:55:10;;;;;;;9.83;6.60;;;;;;;;;;5074156;28;20503;-62
2022/01/12 00:57:36;;;;;;;8.83;6.20;;;;;;;;;;5074058;28;20529;-61
2022/01/12 01:00:05;;;;;;;8.33;5.57;;;;;;;;;;5073916;28;20481;-61
2022/01/12 01:02:31;;;;;;;9.63;5.97;;;;;;;;;;5073956;28;20444;-62
2022/01/12 01:04:57;;;;;;;9.50;6.50;;;;;;;;;;5073915;28;20505;-61
2022/01/12 01:07:23;;;;;;;7.07;5.63;;;;;;;;;;5073852;28;20219;-62
2022/01/12 01:10:01;;;;;;;8.07;5.60;;;;;;;;;;5073711;28;20457;-62
2022/01/12 01:12:27;;;;;;;9.40;6.17;;;;;;;;;;5073421;28;20633;-62
2022/01/12 01:15:07;;;;;;;7.20;5.17;;;;;;;;;;5073535;28;20434;-62
2022/01/12 01:25:35;;;;;;;9.13;6.30;;;;;;;;;;5073294;28;20449;-61
2022/01/12 01:28:03;;;;;;;7.70;5.10;;;;;;;;;;5073319;28;20441;-62
2022/01/12 01:30:29;;;;;;;9.50;6.13;;;;;;;;;;5073314;28;20440;-62
2022/01/12 01:33:03;;;;;;;8.97;6.17;;;;;;;;;;5072901;28;20445;-61
2022/01/12 01:35:31;;;;;;;8.60;6.00;;;;;;;;;;5073025;28;20836;-60
2022/01/12 01:37:58;;;;;;;8.60;5.73;;;;;;;;;;5073119;28;20457;-61
2022/01/12 01:40:24;;;;;;;9.50;5.60;;;;;;;;;;5073099;28;20505;-63
2022/01/12 01:43:09;;;;;;;8.87;5.70;;;;;;;;;;5073172;28;20437;-61
2022/01/12 01:53:53;;;;;;;8.23;6.10;;;;;;;;;;5072730;28;20449;-62
2022/01/12 01:56:19;;;;;;;9.70;7.00;;;;;;;;;;5073032;28;20516;-61
2022/01/12 01:58:45;;;;;;;7.27;6.40;;;;;;;;;;5072885;28;20448;-62
2022/01/12 02:01:11;;;;;;;8.60;6.30;;;;;;;;;;5072695;28;20474;-61
2022/01/12 02:03:40;;;;;;;9.93;6.60;;;;;;;;;;5072851;28;20199;-62
2022/01/12 02:06:07;;;;;;;8.10;6.37;;;;;;;;;;5072481;28;20468;-60
2022/01/12 02:08:35;;;;;;;7.90;6.60;;;;;;;;;;5072824;28;20433;-60
2022/01/12 02:11:01;;;;;;;9.87;6.57;;;;;;;;;;5072385;28;20442;-61
2022/01/12 02:13:27;;;;;;;7.03;5.97;;;;;;;;;;5072752;28;20453;-61
2022/01/12 02:15:54;;;;;;;8.20;6.00;;;;;;;;;;5072471;28;20449;-61
2022/01/12 02:40:22;;;;;;;8.20;6.40;;;;;;;;;;5071959;28;20544;-60
2022/01/12 02:42:58;;;;;;;9.10;6.43;;;;;;;;;;5072300;28;20444;-60
2022/01/12 02:51:07;;;;;;;9.17;6.93;;;;;;;;;;5071999;28;20429;-61
2022/01/12 02:53:39;;;;;;;10.50;7.20;;;;;;;;;;5072221;28;20463;-61
2022/01/12 02:56:05;;;;;;;8.07;6.67;;;;;;;;;;5072113;28;20434;-61
2022/01/12 02:58:31;;;;;;;11.13;6.40;;;;;;;;;;5072257;28;20528;-61
2022/01/12 03:03:25;;;;;;;10.67;7.93;;;;;;;;;;5072118;28;20487;-61
2022/01/12 03:05:58;;;;;;;10.47;6.40;;;;;;;;;;5071884;28;20465;-61
2022/01/12 03:08:25;;;;;;;8.20;6.80;;;;;;;;;;5071923;28;20438;-61
2022/01/12 03:10:53;;;;;;;9.33;6.70;;;;;;;;;;5071633;28;20446;-61
2022/01/12 03:13:19;;;;;;;10.17;6.50;;;;;;;;;;5071977;28;20503;-61
2022/01/12 03:15:47;;;;;;;8.27;6.13;;;;;;;;;;5071867;28;20434;-61
2022/01/12 03:18:13;;;;;;;8.93;6.93;;;;;;;;;;5071793;28;20199;-61
2022/01/12 03:20:39;;;;;;;11.83;6.70;;;;;;;;;;5071748;28;20473;-61
2022/01/12 03:23:05;;;;;;;8.50;6.00;;;;;;;;;;5071808;28;20429;-62
2022/01/12 03:25:31;;;;;;;12.37;7.00;;;;;;;;;;5071967;28;20441;-61
2022/01/12 03:28:01;;;;;;;10.20;6.57;;;;;;;;;;5071627;28;20511;-61
2022/01/12 03:30:34;;;;;;;9.37;6.43;;;;;;;;;;5071797;28;20199;-62
2022/01/12 03:33:13;;;;;;;7.83;6.80;;;;;;;;;;5071659;28;20792;-62
2022/01/12 03:35:51;;;;;;;9.63;7.03;;;;;;;;;;5071728;28;20437;-61
2022/01/12 03:38:20;;;;;;;12.30;7.67;;;;;;;;;;5071686;28;20425;-61
2022/01/12 03:40:47;;;;;;;8.47;6.87;;;;;;;;;;5071771;28;20940;-61
2022/01/12 03:43:14;;;;;;;11.00;7.33;;;;;;;;;;5071412;28;20430;-62
2022/01/12 03:45:41;;;;;;;7.60;6.40;;;;;;;;;;5071682;28;20584;-61
2022/01/12 03:48:07;;;;;;;12.37;7.20;;;;;;;;;;5071526;28;20425;-61
2022/01/12 03:50:33;;;;;;;9.13;6.67;;;;;;;;;;5071423;28;20433;-62
2022/01/12 03:52:59;;;;;;;7.73;6.37;;;;;;;;;;5071292;28;20491;-62
2022/01/12 03:55:25;;;;;;;11.50;6.83;;;;;;;;;;5071536;28;20307;-62
2022/01/12 03:57:51;;;;;;;9.43;7.73;;;;;;;;;;5074018;28;20200;-61
2022/01/12 04:00:18;;;;;;;9.53;7.17;;;;;;;;;;5075059;28;20434;-62
2022/01/12 04:02:44;;;;;;;9.17;7.47;;;;;;;;;;5074923;28;20210;-61
2022/01/12 04:08:21;;;;;;;11.50;7.03;;;;;;;;;;5032428;28;20209;-61
2022/01/12 04:10:47;;;;;;;9.57;7.80;;;;;;;;;;5032627;28;20455;-61
2022/01/12 04:13:14;;;;;;;9.23;7.57;;;;;;;;;;5053989;28;20433;-61
2022/01/12 04:15:41;;;;;;;11.93;7.87;;;;;;;;;;5074802;28;21030;-61
2022/01/12 04:18:07;;;;;;;10.60;7.97;;;;;;;;;;5074579;28;20877;-61
2022/01/12 04:20:33;;;;;;;9.07;8.13;;;;;;;;;;5074606;28;21031;-62
2022/01/12 04:23:18;;;;;;;10.53;7.77;;;;;;;;;;5074612;28;20415;-61
2022/01/12 04:25:44;;;;;;;9.53;8.00;;;;;;;;;;5074620;28;20666;-62
2022/01/12 04:28:10;;;;;;;11.90;8.03;;;;;;;;;;5074402;28;21294;-61
2022/01/12 04:30:36;;;;;;;13.60;8.23;;;;;;;;;;5074630;28;20517;-62
2022/01/12 04:33:03;;;;;;;14.43;8.90;;;;;;;;;;5074543;28;20195;-61
2022/01/12 04:36:02;;;;;;;13.73;9.57;;;;;;;;;;5074372;28;20990;-61
2022/01/12 04:38:23;;;;;;;11.97;9.13;;;;;;;;;;5072302;28;20531;-62
2022/01/12 04:40:49;;;;;;;13.37;9.50;;;;;;;;;;5074467;28;20466;-62
2022/01/12 04:43:16;;;;;;;11.57;8.33;;;;;;;;;;5074299;28;20921;-62
2022/01/12 04:50:43;;;;;;;11.63;9.03;;;;;;;;;;5074316;28;20470;-62
2022/01/12 04:53:09;;;;;;;13.77;10.13;;;;;;;;;;5074092;28;20541;-62
2022/01/12 04:55:35;;;;;;;13.17;9.53;;;;;;;;;;5074297;28;20450;-62
2022/01/12 04:58:02;;;;;;;14.83;10.60;;;;;;;;;;5074144;28;20928;-62
2022/01/12 05:00:30;;;;;;;11.77;10.33;;;;;;;;;;5074168;28;20473;-61
2022/01/12 05:13:39;;;;;;;13.63;12.17;;;;;;;;;;5073791;28;20207;-61
2022/01/12 05:16:05;;;;;;;18.73;11.70;;;;;;;;;;5073717;28;20804;-61
2022/01/12 05:18:32;;;;;;;15.23;12.43;;;;;;;;;;5073839;28;20438;-61
2022/01/12 05:21:00;;;;;;;15.40;13.07;;;;;;;;;;5073457;28;20473;-62
2022/01/12 05:23:26;;;;;;;17.50;13.33;;;;;;;;;;5073485;28;20462;-63
2022/01/12 05:25:52;;;;;;;18.77;13.73;;;;;;;;;;5073673;28;20446;-63
2022/01/12 05:28:19;;;;;;;20.83;13.23;;;;;;;;;;5073520;28;20484;-66
2022/01/12 05:30:45;;;;;;;19.10;14.10;;;;;;;;;;5073565;28;20460;-66
2022/01/12 05:33:11;;;;;;;18.57;14.13;;;;;;;;;;5073426;28;20482;-66
2022/01/12 05:35:37;;;;;;;23.13;14.63;;;;;;;;;;5073302;28;20430;-66
2022/01/12 05:38:05;;;;;;;23.37;15.70;;;;;;;;;;5073383;28;20436;-65
2022/01/12 05:40:33;;;;;;;18.57;14.90;;;;;;;;;;5073186;28;20474;-64
2022/01/12 05:43:01;;;;;;;20.27;14.57;;;;;;;;;;5073324;28;20458;-64
2022/01/12 05:45:27;;;;;;;20.57;14.53;;;;;;;;;;5073173;28;20442;-63
2022/01/12 05:50:21;;;;;;;18.97;14.77;;;;;;;;;;5073861;28;20793;-61
2022/01/12 05:52:47;;;;;;;18.50;14.60;;;;;;;;;;5073804;28;20441;-61
2022/01/12 05:55:15;;;;;;;18.93;15.13;;;;;;;;;;5072843;28;20495;-62
2022/01/12 05:57:41;;;;;;;24.93;16.90;;;;;;;;;;5072957;28;20536;-63
2022/01/12 06:00:08;;;;;;;23.27;15.73;;;;;;;;;;5072798;28;20924;-63
2022/01/12 06:02:34;;;;;;;24.43;16.70;;;;;;;;;;5072754;28;20470;-64
2022/01/12 06:05:00;;;;;;;25.53;16.97;;;;;;;;;;5072758;28;20440;-64
2022/01/12 06:07:26;;;;;;;22.77;16.87;;;;;;;;;;5072357;28;20204;-65
2022/01/12 06:09:52;;;;;;;23.60;17.67;;;;;;;;;;5072465;28;20430;-66
2022/01/12 06:12:20;;;;;;;28.70;19.70;;;;;;;;;;5072183;28;20298;-67
2022/01/12 06:14:46;;;;;;;36.63;24.40;;;;;;;;;;5072229;28;20203;-67
2022/01/12 06:17:12;;;;;;;28.17;20.77;;;;;;;;;;5072221;28;20928;-67
2022/01/12 06:19:38;;;;;;;25.27;18.83;;;;;;;;;;5071880;28;20430;-68
2022/01/12 06:22:04;;;;;;;29.07;20.43;;;;;;;;;;5072866;28;20473;-69
2022/01/12 06:24:30;;;;;;;29.40;21.00;;;;;;;;;;5072208;28;20441;-70
2022/01/12 06:26:57;;;;;;;32.40;22.13;;;;;;;;;;5072766;28;20927;-70
2022/01/12 06:29:39;;;;;;;32.07;21.63;;;;;;;;;;5072383;28;20441;-73
2022/01/12 06:32:06;;;;;;;29.67;19.97;;;;;;;;;;5072430;28;20450;-72
2022/01/12 06:34:32;;;;;;;26.10;20.63;;;;;;;;;;5071690;28;20492;-70
2022/01/12 06:36:58;;;;;;;32.20;20.63;;;;;;;;;;5071647;28;20434;-70
2022/01/12 06:39:26;;;;;;;30.47;22.43;;;;;;;;;;5071947;28;20959;-70
2022/01/12 06:41:53;;;;;;;34.20;22.87;;;;;;;;;;5072008;28;20564;-72
2022/01/12 06:44:20;;;;;;;33.20;23.70;;;;;;;;;;5072103;28;20438;-71
2022/01/12 06:46:48;;;;;;;28.13;21.23;;;;;;;;;;5072067;28;20434;-71
2022/01/12 06:49:16;;;;;;;33.67;23.20;;;;;;;;;;5071798;28;20449;-72
2022/01/12 06:51:42;;;;;;;33.67;22.43;;;;;;;;;;5071727;28;20942;-70
2022/01/12 06:54:08;;;;;;;32.80;23.30;;;;;;;;;;5071948;28;20454;-70
2022/01/12 06:56:34;;;;;;;34.93;24.37;;;;;;;;;;5071967;28;20429;-70
2022/01/12 06:59:00;;;;;;;34.13;24.20;;;;;;;;;;5071935;28;20536;-70
2022/01/12 07:01:26;;;;;;;37.53;23.93;;;;;;;;;;5071579;28;20924;-72
2022/01/12 07:03:54;;;;;;;36.17;24.23;;;;;;;;;;5072023;28;20296;-71
2022/01/12 07:06:20;;;;;;;39.97;25.70;;;;;;;;;;5071725;28;20868;-70
2022/01/12 07:08:46;;;;;;;32.97;24.03;;;;;;;;;;5071933;28;20938;-71
2022/01/12 07:11:12;;;;;;;35.17;24.80;;;;;;;;;;5071330;28;20469;-71
2022/01/12 07:13:38;;;;;;;38.23;25.13;;;;;;;;;;5071824;28;20195;-68
2022/01/12 07:16:04;;;;;;;36.30;25.00;;;;;;;;;;5071865;28;20843;-68
2022/01/12 07:18:30;;;;;;;38.00;26.73;;;;;;;;;;5071544;28;20286;-69
2022/01/12 07:20:58;;;;;;;35.57;26.13;;;;;;;;;;5071566;28;20476;-68
2022/01/12 07:23:24;;;;;;;38.97;26.07;;;;;;;;;;5071611;28;20678;-68
2022/01/12 07:25:50;;;;;;;40.80;27.30;;;;;;;;;;5071838;28;20433;-69
2022/01/12 07:28:16;;;;;;;39.57;26.87;;;;;;;;;;5071353;28;20433;-69
2022/01/12 07:30:42;;;;;;;40.20;27.80;;;;;;;;;;5071654;28;20435;-68
2022/01/12 07:33:08;;;;;;;46.80;29.00;;;;;;;;;;5074753;28;20426;-67
2022/01/12 07:35:34;;;;;;;42.17;27.77;;;;;;;;;;5075423;28;20776;-68
2022/01/12 07:38:01;;;;;;;43.90;29.37;;;;;;;;;;5075585;28;20498;-68
2022/01/12 07:40:28;;;;;;;44.73;28.33;;;;;;;;;;5075356;28;20438;-68
2022/01/12 07:42:54;;;;;;;44.73;26.77;;;;;;;;;;5075397;28;20813;-68
2022/01/12 07:45:20;;;;;;;39.10;27.40;;;;;;;;;;5075195;28;20516;-68
2022/01/12 07:47:46;;;;;;;38.07;27.13;;;;;;;;;;5075425;28;20763;-68
2022/01/12 07:50:12;;;;;;;41.47;26.53;;;;;;;;;;5075275;28;20454;-68
2022/01/12 07:52:38;;;;;;;37.70;25.77;;;;;;;;;;5075257;28;20196;-68
2022/01/12 07:55:06;;;;;;;39.23;25.83;;;;;;;;;;5075270;28;20446;-69
2022/01/12 07:57:32;;;;;;;40.17;27.17;;;;;;;;;;5075113;28;20781;-68
2022/01/12 07:59:58;;;;;;;39.73;26.30;;;;;;;;;;5075108;28;20488;-68
2022/01/12 08:02:24;;;;;;;40.30;26.87;;;;;;;;;;5074923;28;20693;-68
2022/01/12 08:04:51;;;;;;;41.37;27.10;;;;;;;;;;5074922;28;20476;-68
2022/01/12 08:07:17;;;;;;;43.17;27.37;;;;;;;;;;5074895;28;20923;-68
2022/01/12 08:09:43;;;;;;;41.53;26.77;;;;;;;;;;5074957;28;20436;-68
2022/01/12 08:12:11;;;;;;;41.07;27.33;;;;;;;;;;5074573;28;20461;-68
2022/01/12 08:14:37;;;;;;;40.77;26.17;;;;;;;;;;5074708;28;20450;-68
2022/01/12 08:17:04;;;;;;;42.00;26.63;;;;;;;;;;5075051;28;20441;-68
2022/01/12 08:19:34;;;;;;;41.23;25.07;;;;;;;;;;5074646;28;20441;-68
2022/01/12 08:22:00;;;;;;;37.90;26.43;;;;;;;;;;5074645;28;20485;-67
2022/01/12 08:24:26;;;;;;;43.57;26.03;;;;;;;;;;5074626;28;20485;-69
2022/01/12 08:26:52;;;;;;;42.53;25.73;;;;;;;;;;5074644;28;20444;-69
2022/01/12 08:29:19;;;;;;;40.13;27.77;;;;;;;;;;5074719;28;20426;-68
2022/01/12 08:31:45;;;;;;;41.63;26.10;;;;;;;;;;5074450;28;20564;-67
2022/01/12 08:34:12;;;;;;;41.47;26.87;;;;;;;;;;5074313;28;20950;-67
2022/01/12 08:36:38;;;;;;;44.70;26.80;;;;;;;;;;5074148;28;20454;-68
2022/01/12 08:39:07;;;;;;;46.93;26.20;;;;;;;;;;5074502;28;20448;-68
2022/01/12 08:41:33;;;;;;;39.47;26.77;;;;;;;;;;5073147;28;20504;-68
2022/01/12 08:43:59;;;;;;;39.77;28.03;;;;;;;;;;5074590;28;20449;-67
2022/01/12 08:46:26;;;;;;;39.13;26.87;;;;;;;;;;5074165;28;20491;-67
2022/01/12 08:48:52;;;;;;;49.80;26.13;;;;;;;;;;5074278;28;20199;-68
2022/01/12 08:51:18;;;;;;;44.70;27.07;;;;;;;;;;5074154;28;20993;-67
2022/01/12 08:53:44;;;;;;;47.40;27.00;;;;;;;;;;5074055;28;20243;-69
2022/01/12 08:56:10;;;;;;;45.00;26.57;;;;;;;;;;5074232;28;20648;-69
2022/01/12 08:58:37;;;;;;;43.07;27.23;;;;;;;;;;5073952;28;20978;-69
2022/01/12 09:01:03;;;;;;;41.37;26.70;;;;;;;;;;5073902;28;20253;-68
2022/01/12 09:03:31;;;;;;;42.93;25.13;;;;;;;;;;5073501;28;20437;-67
2022/01/12 09:05:57;;;;;;;46.93;26.87;;;;;;;;;;5073833;28;20454;-68
2022/01/12 09:08:23;;;;;;;42.40;25.67;;;;;;;;;;5073739;28;20477;-67
2022/01/12 09:10:49;;;;;;;46.20;26.63;;;;;;;;;;5073735;28;20959;-67
2022/01/12 09:13:19;;;;;;;39.63;25.97;;;;;;;;;;5073646;28;20635;-67
2022/01/12 09:15:45;;;;;;;45.10;24.23;;;;;;;;;;5073285;28;20499;-68
2022/01/12 09:18:11;;;;;;;38.83;25.50;;;;;;;;;;5073630;28;20430;-68
2022/01/12 09:20:38;;;;;;;41.40;24.50;;;;;;;;;;5073095;28;20227;-68
2022/01/12 09:23:05;;;;;;;36.10;23.60;;;;;;;;;;5073552;28;20286;-68
2022/01/12 09:25:35;;;;;;;38.80;22.73;;;;;;;;;;5073154;28;20851;-68
2022/01/12 09:28:02;;;;;;;37.97;23.33;;;;;;;;;;5073511;28;20426;-69
2022/01/12 09:30:28;;;;;;;38.83;24.50;;;;;;;;;;5073227;28;20438;-68
2022/01/12 09:32:54;;;;;;;37.33;24.37;;;;;;;;;;5073389;28;20486;-69
2022/01/12 09:35:20;;;;;;;42.53;25.03;;;;;;;;;;5073235;28;20511;-68
2022/01/12 09:37:47;;;;;;;44.30;25.00;;;;;;;;;;5073259;28;20944;-69
2022/01/12 09:40:14;;;;;;;37.23;23.87;;;;;;;;;;5073319;28;20322;-69
2022/01/12 09:42:42;;;;;;;41.97;24.00;;;;;;;;;;5073211;28;20479;-69
2022/01/12 09:45:14;;;;;;;46.43;24.50;;;;;;;;;;5073202;28;20480;-69
2022/01/12 09:47:40;;;;;;;39.70;23.90;;;;;;;;;;5072979;28;20438;-69
2022/01/12 09:50:06;;;;;;;35.70;23.03;;;;;;;;;;5072789;28;20437;-68
2022/01/12 09:52:32;;;;;;;42.03;25.63;;;;;;;;;;5072855;28;20438;-68
2022/01/12 09:54:59;;;;;;;39.43;23.83;;;;;;;;;;5072299;28;20458;-69
2022/01/12 09:57:25;;;;;;;37.53;22.87;;;;;;;;;;5072901;28;20207;-68
2022/01/12 09:59:51;;;;;;;33.07;21.30;;;;;;;;;;5072848;28;20528;-68
2022/01/12 10:02:18;;;;;;;33.20;21.97;;;;;;;;;;5072781;28;20556;-64
2022/01/12 10:04:44;;;;;;;36.97;22.70;;;;;;;;;;5072671;28;20260;-71
2022/01/12 10:07:11;;;;;;;31.03;21.73;;;;;;;;;;5073008;28;20583;-68
2022/01/12 10:09:39;;;;;;;34.93;21.67;;;;;;;;;;5072568;28;20429;-63
2022/01/12 10:12:10;;;;;;;32.23;22.63;;;;;;;;;;5072458;28;20498;-65
2022/01/12 10:14:45;;;;;;;32.10;21.57;;;;;;;;;;5072819;28;20430;-70
2022/01/12 10:17:11;;;;;;;34.63;21.73;;;;;;;;;;5072496;28;20440;-69
2022/01/12 10:19:37;;;;;;;31.63;21.63;;;;;;;;;;5072306;28;20434;-70
2022/01/12 10:22:05;;;;;;;29.90;21.33;;;;;;;;;;5072074;28;20489;-67
2022/01/12 10:24:31;;;;;;;34.10;22.00;;;;;;;;;;5072011;28;20445;-67
2022/01/12 10:26:57;;;;;;;32.70;22.27;;;;;;;;;;5072197;28;20491;-67
2022/01/12 10:29:26;;;;;;;34.37;22.17;;;;;;;;;;5071936;28;20482;-68
2022/01/12 10:31:54;;;;;;;34.90;22.70;;;;;;;;;;5071804;28;20434;-67
2022/01/12 10:34:22;;;;;;;33.03;22.97;;;;;;;;;;5072025;28;20595;-67
2022/01/12 10:36:48;;;;;;;34.77;23.20;;;;;;;;;;5070224;28;20842;-67
2022/01/12 10:39:15;;;;;;;36.43;23.80;;;;;;;;;;5071817;28;20496;-67
2022/01/12 10:41:42;;;;;;;36.57;23.13;;;;;;;;;;5071623;28;21003;-67
2022/01/12 10:44:18;;;;;;;34.97;23.07;;;;;;;;;;5071889;28;20440;-67
2022/01/12 10:46:45;;;;;;;32.33;22.93;;;;;;;;;;5071587;28;20446;-68
2022/01/12 10:49:17;;;;;;;37.30;23.87;;;;;;;;;;5071535;28;20437;-67
2022/01/12 10:51:43;;;;;;;37.67;25.00;;;;;;;;;;5071493;28;20438;-67
2022/01/12 10:54:09;;;;;;;35.37;23.70;;;;;;;;;;5071732;28;20464;-68
2022/01/12 10:56:35;;;;;;;36.13;24.80;;;;;;;;;;5071591;28;20192;-67
2022/01/12 10:59:01;;;;;;;38.03;24.57;;;;;;;;;;5071741;28;20613;-68
2022/01/12 11:01:28;;;;;;;41.43;26.43;;;;;;;;;;5071319;28;20304;-68
2022/01/12 11:03:56;;;;;;;45.00;26.23;;;;;;;;;;5071633;28;20207;-68
2022/01/12 11:06:24;;;;;;;36.33;25.53;;;;;;;;;;5071648;28;20521;-68
2022/01/12 11:08:50;;;;;;;35.53;24.63;;;;;;;;;;5075339;28;20473;-68
2022/01/12 11:11:17;;;;;;;44.03;27.00;;;;;;;;;;5075457;28;20469;-68
2022/01/12 11:13:45;;;;;;;42.10;27.27;;;;;;;;;;5075567;28;20204;-69
2022/01/12 11:16:11;;;;;;;41.23;26.73;;;;;;;;;;5075579;28;20672;-67
2022/01/12 11:18:38;;;;;;;39.23;26.47;;;;;;;;;;5075377;28;20475;-67
2022/01/12 11:21:07;;;;;;;42.20;25.70;;;;;;;;;;5075329;28;21053;-68
2022/01/12 11:23:35;;;;;;;43.07;25.03;;;;;;;;;;5075483;28;20852;-68
2022/01/12 11:26:11;;;;;;;38.73;25.37;;;;;;;;;;5075484;28;20441;-68
2022/01/12 11:28:38;;;;;;;42.67;26.30;;;;;;;;;;5075216;28;20430;-67
2022/01/12 11:31:05;;;;;;;39.30;24.73;;;;;;;;;;5075408;28;20795;-68
2022/01/12 11:33:40;;;;;;;42.23;26.17;;;;;;;;;;5073190;28;20433;-68
2022/01/12 11:36:14;;;;;;;39.20;24.63;;;;;;;;;;5075272;28;20867;-66
2022/01/12 11:38:40;;;;;;;36.93;24.80;;;;;;;;;;5075383;28;20485;-68
2022/01/12 11:41:11;;;;;;;39.43;24.77;;;;;;;;;;5075339;28;20546;-70
2022/01/12 11:43:42;;;;;;;37.77;23.63;;;;;;;;;;5075358;28;20521;-69
2022/01/12 11:46:12;;;;;;;34.33;22.10;;;;;;;;;;5075450;28;20440;-68
2022/01/12 11:48:42;;;;;;;35.67;23.07;;;;;;;;;;5075170;28;20896;-68
2022/01/12 11:51:08;;;;;;;31.17;21.30;;;;;;;;;;5075178;28;20468;-68
2022/01/12 11:53:44;;;;;;;35.03;21.67;;;;;;;;;;5075159;28;20454;-68
2022/01/12 11:56:14;;;;;;;29.10;20.60;;;;;;;;;;5075190;28;20227;-69
2022/01/12 11:58:53;;;;;;;32.40;22.17;;;;;;;;;;5075043;28;20461;-69
2022/01/12 12:01:19;;;;;;;32.57;21.53;;;;;;;;;;5075038;28;20491;-69
2022/01/12 12:03:55;;;;;;;29.50;19.73;;;;;;;;;;5075082;28;20807;-69
2022/01/12 12:06:21;;;;;;;29.30;19.23;;;;;;;;;;5075021;28;20432;-69
2022/01/12 12:08:56;;;;;;;32.90;18.97;;;;;;;;;;5075035;28;20458;-69
2022/01/12 12:11:24;;;;;;;28.40;19.00;;;;;;;;;;5074821;28;20544;-69
2022/01/12 12:13:50;;;;;;;27.83;17.93;;;;;;;;;;5074818;28;20924;-69
2022/01/12 12:16:16;;;;;;;25.87;15.27;;;;;;;;;;5074901;28;20483;-68
2022/01/12 12:18:42;;;;;;;22.90;16.03;;;;;;;;;;5074292;28;20199;-70
2022/01/12 12:21:08;;;;;;;25.20;16.03;;;;;;;;;;5074673;28;20470;-69
2022/01/12 12:23:34;;;;;;;25.73;15.57;;;;;;;;;;5074754;28;20195;-69
2022/01/12 12:26:08;;;;;;;26.93;16.10;;;;;;;;;;5074699;28;20195;-69
2022/01/12 12:28:34;;;;;;;25.67;15.37;;;;;;;;;;5074498;28;20306;-69
2022/01/12 12:31:00;;;;;;;24.30;14.67;;;;;;;;;;5074597;28;20485;-69
2022/01/12 12:33:26;;;;;;;25.90;15.43;;;;;;;;;;5074422;28;20367;-69
2022/01/12 12:35:52;;;;;;;26.63;13.83;;;;;;;;;;5074371;28;20204;-68
2022/01/12 12:38:19;;;;;;;23.43;14.27;;;;;;;;;;5074800;28;20444;-70
2022/01/12 12:40:46;;;;;;;23.93;13.73;;;;;;;;;;5074470;28;20256;-69
2022/01/12 12:43:19;;;;;;;23.13;13.10;;;;;;;;;;5074431;28;20430;-70
2022/01/12 12:45:46;;;;;;;26.07;14.00;;;;;;;;;;5074322;28;20932;-69
2022/01/12 12:48:15;;;;;;;22.97;13.20;;;;;;;;;;5074408;28;20430;-69
2022/01/12 12:50:41;;;;;;;23.53;13.43;;;;;;;;;;5073843;28;21032;-69
2022/01/12 12:53:08;;;;;;;19.30;13.60;;;;;;;;;;5074194;28;20529;-69
2022/01/12 12:55:35;;;;;;;21.57;13.47;;;;;;;;;;5074228;28;20430;-70
2022/01/12 12:58:01;;;;;;;23.10;13.47;;;;;;;;;;5073975;28;20448;-72
2022/01/12 13:00:28;;;;;;;20.67;12.93;;;;;;;;;;5074342;28;20876;-75
2022/01/12 13:02:55;;;;;;;22.20;13.43;;;;;;;;;;5073801;28;20304;-74
2022/01/12 13:05:22;;;;;;;21.57;12.90;;;;;;;;;;5074093;28;20972;-72
2022/01/12 13:07:49;;;;;;;22.53;14.83;;;;;;;;;;5074059;28;20453;-74
2022/01/12 13:10:16;;;;;;;23.97;15.87;;;;;;;;;;5072128;28;20440;-73
2022/01/12 13:12:44;;;;;;;26.63;15.73;;;;;;;;;;5073569;28;20478;-74
2022/01/12 13:15:17;;;;;;;23.47;14.83;;;;;;;;;;5073827;28;20219;-74
2022/01/12 13:17:44;;;;;;;23.77;13.90;;;;;;;;;;5073530;28;20445;-74
2022/01/12 13:22:46;;;;;;;22.83;14.70;;;;;;;;;;5073503;28;20461;-74
2022/01/12 13:25:15;;;;;;;22.60;13.67;;;;;;;;;;5073554;28;20441;-74
2022/01/12 13:27:41;;;;;;;23.20;15.23;;;;;;;;;;5073437;28;20517;-74
2022/01/12 13:30:08;;;;;;;26.10;15.10;;;;;;;;;;5072601;28;20446;-74
2022/01/12 13:32:36;;;;;;;29.63;15.23;;;;;;;;;;5073526;28;20513;-75
2022/01/12 13:35:08;;;;;;;28.63;16.60;;;;;;;;;;5073184;28;20475;-73
2022/01/12 13:37:34;;;;;;;26.93;16.23;;;;;;;;;;5073285;28;20207;-74
2022/01/12 13:40:04;;;;;;;29.07;16.43;;;;;;;;;;5073006;28;20504;-74
2022/01/12 13:42:30;;;;;;;23.13;16.10;;;;;;;;;;5072763;28;20310;-75
2022/01/12 13:45:04;;;;;;;27.60;16.97;;;;;;;;;;5072710;28;20473;-73
2022/01/12 13:47:34;;;;;;;29.23;18.00;;;;;;;;;;5072870;28;20495;-74
2022/01/12 13:50:02;;;;;;;25.90;17.47;;;;;;;;;;5072906;28;20426;-73
2022/01/12 13:52:29;;;;;;;26.97;18.33;;;;;;;;;;5072663;28;20188;-74
2022/01/12 13:54:55;;;;;;;25.77;16.33;;;;;;;;;;5072648;28;20593;-75
2022/01/12 13:57:26;;;;;;;28.40;17.30;;;;;;;;;;5072752;28;20901;-75
2022/01/12 13:59:53;;;;;;;26.40;16.17;;;;;;;;;;5072680;28;20283;-75
2022/01/12 14:02:20;;;;;;;27.83;16.53;;;;;;;;;;5072594;28;20592;-74
2022/01/12 14:04:58;;;;;;;25.17;16.90;;;;;;;;;;5072717;28;20670;-74
2022/01/12 14:07:25;;;;;;;26.00;17.80;;;;;;;;;;5072789;28;20434;-73
2022/01/12 14:09:54;;;;;;;26.57;17.97;;;;;;;;;;5072135;28;20200;-74
2022/01/12 14:12:20;;;;;;;25.80;17.67;;;;;;;;;;5072409;28;20238;-75
2022/01/12 14:14:47;;;;;;;24.80;17.27;;;;;;;;;;5072420;28;20513;-74
2022/01/12 14:17:23;;;;;;;25.97;18.00;;;;;;;;;;5072632;28;20199;-69
2022/01/12 14:19:51;;;;;;;27.20;17.47;;;;;;;;;;5072127;28;20261;-66
2022/01/12 14:22:18;;;;;;;26.00;17.23;;;;;;;;;;5072179;28;20231;-70
2022/01/12 14:24:54;;;;;;;25.53;16.33;;;;;;;;;;5072286;28;20436;-71
2022/01/12 14:27:20;;;;;;;26.10;18.73;;;;;;;;;;5072339;28;20286;-72
2022/01/12 14:29:46;;;;;;;25.77;18.83;;;;;;;;;;5072224;28;20622;-70
2022/01/12 14:32:12;;;;;;;24.13;17.97;;;;;;;;;;5071904;28;20198;-69
2022/01/12 14:34:38;;;;;;;25.97;18.83;;;;;;;;;;5071805;28;20433;-71
2022/01/12 14:37:04;;;;;;;27.67;19.43;;;;;;;;;;5071853;28;20199;-71
2022/01/12 14:39:30;;;;;;;26.93;17.97;;;;;;;;;;5070157;28;20219;-71
2022/01/12 14:41:58;;;;;;;26.07;18.03;;;;;;;;;;5071258;28;20972;-71
2022/01/12 14:44:28;;;;;;;27.17;19.57;;;;;;;;;;5071332;28;20264;-71
2022/01/12 14:46:54;;;;;;;29.83;18.63;;;;;;;;;;5071160;28;20936;-70
2022/01/12 14:49:20;;;;;;;27.47;19.20;;;;;;;;;;5071314;28;20426;-70
2022/01/12 14:51:46;;;;;;;31.43;20.10;;;;;;;;;;5071477;28;20490;-70
2022/01/12 14:54:13;;;;;;;28.00;19.93;;;;;;;;;;5071562;28;20211;-70
2022/01/12 14:56:39;;;;;;;28.87;19.97;;;;;;;;;;5071496;28;20444;-70
2022/01/12 14:59:06;;;;;;;28.80;20.13;;;;;;;;;;5071358;28;20441;-72
2022/01/12 15:01:33;;;;;;;31.50;19.47;;;;;;;;;;5071671;28;20996;-71
2022/01/12 15:03:59;;;;;;;29.27;19.80;;;;;;;;;;5069431;28;20459;-71
2022/01/12 15:06:25;;;;;;;30.10;19.37;;;;;;;;;;5070580;28;20438;-71
2022/01/12 15:08:51;;;;;;;31.60;21.70;;;;;;;;;;5071240;28;20285;-71
2022/01/12 15:11:17;;;;;;;32.80;20.10;;;;;;;;;;5071423;28;20601;-70
2022/01/12 15:13:55;;;;;;;34.00;20.77;;;;;;;;;;5071344;28;20696;-71
2022/01/12 15:16:22;;;;;;;33.37;20.33;;;;;;;;;;5071380;28;20445;-71
2022/01/12 15:18:48;;;;;;;31.77;19.67;;;;;;;;;;5071757;28;20463;-70
2022/01/12 15:21:16;;;;;;;26.30;18.57;;;;;;;;;;5071307;28;20754;-71
2022/01/12 15:23:42;;;;;;;24.00;15.90;;;;;;;;;;5071943;28;20441;-70
2022/01/12 15:26:08;;;;;;;23.13;14.60;;;;;;;;;;5071740;28;20483;-71
2022/01/12 15:28:34;;;;;;;23.77;14.13;;;;;;;;;;5071763;28;20191;-70
2022/01/12 15:31:00;;;;;;;26.67;15.00;;;;;;;;;;5071656;28;20196;-70
2022/01/12 15:33:27;;;;;;;23.23;14.03;;;;;;;;;;5071530;28;20202;-72
2022/01/12 15:35:53;;;;;;;20.57;14.33;;;;;;;;;;5071454;28;20442;-70
2022/01/12 15:38:19;;;;;;;22.17;14.40;;;;;;;;;;5071473;28;20479;-71
2022/01/12 15:40:46;;;;;;;21.13;14.17;;;;;;;;;;5071757;28;20707;-71
2022/01/12 15:43:12;;;;;;;25.80;14.83;;;;;;;;;;5071445;28;20227;-71